createdAt,value
2023-05-15T00:01:20.179Z,99.90
2023-05-15T00:03:47.164Z,99.90
2023-05-15T00:06:14.242Z,99.90
2023-05-15T00:08:41.239Z,99.90
2023-05-15T00:11:07.937Z,99.90
2023-05-15T00:13:34.685Z,99.90
2023-05-15T00:16:01.437Z,99.90
2023-05-15T00:18:28.176Z,99.90
2023-05-15T00:20:54.950Z,99.90
2023-05-15T00:23:21.718Z,99.90
2023-05-15T00:25:48.473Z,99.90
2023-05-15T00:28:15.347Z,99.90
2023-05-15T00:30:42.118Z,99.90
2023-05-15T00:33:09.347Z,99.90
2023-05-15T00:35:36.112Z,99.90
2023-05-15T00:38:02.876Z,99.90
2023-05-15T00:40:30.848Z,99.90
2023-05-15T00:42:59.652Z,99.90
2023-05-15T00:45:27.047Z,99.90
2023-05-15T00:47:54.938Z,99.90
2023-05-15T00:50:23.472Z,99.90
2023-05-15T00:52:51.025Z,99.90
2023-05-15T00:55:18.057Z,99.90
2023-05-15T00:57:46.497Z,99.90
2023-05-15T01:00:16.929Z,99.90
2023-05-15T01:02:44.368Z,99.90
2023-05-15T01:05:11.914Z,99.90
2023-05-15T01:07:48.992Z,99.90
2023-05-15T01:10:17.922Z,99.90
2023-05-15T01:12:47.388Z,99.90
2023-05-15T01:15:14.107Z,99.90
2023-05-15T01:17:40.987Z,99.90
2023-05-15T01:20:10.602Z,99.90
2023-05-15T01:22:46.877Z,99.90
2023-05-15T01:25:32.201Z,99.90
2023-05-15T01:28:02.941Z,99.90
2023-05-15T01:30:34.580Z,99.90
2023-05-15T01:33:07.402Z,99.90
2023-05-15T01:36:07.210Z,99.90
2023-05-15T01:38:52.226Z,99.90
2023-05-15T01:41:37.336Z,99.90
2023-05-15T01:44:39.203Z,99.90
2023-05-15T01:47:19.372Z,99.90
2023-05-15T01:49:47.972Z,99.90
2023-05-15T01:52:28.981Z,99.90
2023-05-15T01:54:57.199Z,99.90
2023-05-15T01:57:25.430Z,99.90
2023-05-15T01:59:52.974Z,99.90
2023-05-15T02:02:20.586Z,99.90
2023-05-15T02:04:49.123Z,99.90
2023-05-15T02:07:16.610Z,99.90
2023-05-15T02:09:44.332Z,99.90
2023-05-15T02:12:11.766Z,99.90
2023-05-15T02:14:41.008Z,99.90
2023-05-15T02:17:07.853Z,99.90
2023-05-15T02:19:34.602Z,99.90
2023-05-15T02:22:01.291Z,99.90
2023-05-15T02:24:27.963Z,99.90
2023-05-15T02:27:13.432Z,99.90
2023-05-15T02:30:11.130Z,99.90
2023-05-15T02:32:56.300Z,99.90
2023-05-15T02:35:48.014Z,99.90
2023-05-15T02:38:18.952Z,99.90
2023-05-15T02:40:47.712Z,99.90
2023-05-15T02:43:17.869Z,99.90
2023-05-15T02:45:47.603Z,99.90
2023-05-15T02:48:15.487Z,99.90
2023-05-15T02:50:43.430Z,99.90
2023-05-15T02:53:10.641Z,99.90
2023-05-15T02:55:38.800Z,99.90
2023-05-15T02:58:05.874Z,99.90
2023-05-15T03:00:33.035Z,99.90
2023-05-15T03:02:59.971Z,99.90
2023-05-15T03:05:27.155Z,99.90
2023-05-15T03:07:54.082Z,99.90
2023-05-15T03:10:23.723Z,99.90
2023-05-15T03:12:50.506Z,99.90
2023-05-15T03:15:17.461Z,99.90
2023-05-15T03:17:44.774Z,99.90
2023-05-15T03:20:11.558Z,99.90
2023-05-15T03:22:38.346Z,99.90
2023-05-15T03:25:05.764Z,99.90
2023-05-15T03:27:32.440Z,99.90
2023-05-15T03:29:59.200Z,99.90
2023-05-15T03:32:25.890Z,99.90
2023-05-15T03:34:52.624Z,99.90
2023-05-15T03:37:19.292Z,99.90
2023-05-15T03:39:46.004Z,99.90
2023-05-15T03:42:12.717Z,99.90
2023-05-15T03:44:39.474Z,99.90
2023-05-15T03:47:07.059Z,99.90
2023-05-15T03:49:33.838Z,99.90
2023-05-15T03:52:00.705Z,99.90
2023-05-15T03:54:27.455Z,99.90
2023-05-15T03:56:54.239Z,99.90
2023-05-15T03:59:20.948Z,99.90
2023-05-15T04:02:02.783Z,99.90
2023-05-15T04:04:30.076Z,99.90
2023-05-15T04:06:56.744Z,99.90
2023-05-15T04:09:23.512Z,99.90
2023-05-15T04:11:50.283Z,99.90
2023-05-15T04:14:17.045Z,99.90
2023-05-15T04:16:43.882Z,99.90
2023-05-15T04:19:10.956Z,99.90
2023-05-15T04:21:38.234Z,99.90
2023-05-15T04:24:05.182Z,99.90
2023-05-15T04:26:31.934Z,99.90
2023-05-15T04:29:04.021Z,99.90
2023-05-15T04:31:32.148Z,99.90
2023-05-15T04:33:59.311Z,99.90
2023-05-15T04:36:26.068Z,99.90
2023-05-15T04:38:52.804Z,99.90
2023-05-15T04:41:19.646Z,99.90
2023-05-15T04:43:46.489Z,99.90
2023-05-15T04:46:13.284Z,99.90
2023-05-15T04:48:40.096Z,99.90
2023-05-15T04:51:07.625Z,99.90
2023-05-15T04:53:35.188Z,99.90
2023-05-15T04:56:01.910Z,99.90
2023-05-15T04:58:28.725Z,99.90
2023-05-15T05:00:55.595Z,99.90
2023-05-15T05:03:22.696Z,99.90
2023-05-15T05:05:49.596Z,99.90
2023-05-15T05:08:16.303Z,99.90
2023-05-15T05:10:43.021Z,99.90
2023-05-15T05:13:09.827Z,99.90
2023-05-15T05:15:37.196Z,99.90
2023-05-15T05:18:04.302Z,99.90
2023-05-15T05:20:31.094Z,99.90
2023-05-15T05:22:57.893Z,99.90
2023-05-15T05:25:24.884Z,99.90
2023-05-15T05:27:52.089Z,99.90
2023-05-15T05:30:18.966Z,99.90
2023-05-15T05:32:45.793Z,99.90
2023-05-15T05:35:12.520Z,99.90
2023-05-15T05:37:41.023Z,99.90
2023-05-15T05:40:09.035Z,99.90
2023-05-15T05:42:35.708Z,99.90
2023-05-15T05:45:02.371Z,99.90
2023-05-15T05:47:29.128Z,99.90
2023-05-15T05:49:55.950Z,99.90
2023-05-15T05:52:22.714Z,99.90
2023-05-15T05:54:49.476Z,99.90
2023-05-15T05:57:16.298Z,99.90
2023-05-15T05:59:43.199Z,99.90
2023-05-15T06:02:10.100Z,99.90
2023-05-15T06:04:36.993Z,99.90
2023-05-15T06:07:04.131Z,99.90
2023-05-15T06:09:31.029Z,99.90
2023-05-15T06:11:57.804Z,99.90
2023-05-15T06:14:24.622Z,99.90
2023-05-15T06:16:51.341Z,99.90
2023-05-15T06:19:18.334Z,99.90
2023-05-15T06:21:45.073Z,99.90
2023-05-15T06:24:11.769Z,99.90
2023-05-15T06:26:38.573Z,99.90
2023-05-15T06:29:05.382Z,99.90
2023-05-15T06:31:32.162Z,99.90
2023-05-15T06:33:58.894Z,99.90
2023-05-15T06:36:25.625Z,99.90
2023-05-15T06:38:52.266Z,99.90
2023-05-15T06:41:18.925Z,99.90
2023-05-15T06:43:45.684Z,99.90
2023-05-15T06:46:12.423Z,99.90
2023-05-15T06:48:39.114Z,99.90
2023-05-15T06:51:06.026Z,99.90
2023-05-15T06:53:32.905Z,99.90
2023-05-15T06:55:59.594Z,99.90
2023-05-15T06:58:26.276Z,99.90
2023-05-15T07:00:54.230Z,99.90
2023-05-15T07:03:22.805Z,99.90
2023-05-15T07:05:49.553Z,99.90
2023-05-15T07:08:16.211Z,99.90
2023-05-15T07:10:43.000Z,99.90
2023-05-15T07:13:09.707Z,99.90
2023-05-15T07:15:36.410Z,99.90
2023-05-15T07:18:03.383Z,99.90
2023-05-15T07:20:32.484Z,99.90
2023-05-15T07:23:01.138Z,99.90
2023-05-15T07:25:28.103Z,99.90
2023-05-15T07:27:55.198Z,99.90
2023-05-15T07:30:23.010Z,99.90
2023-05-15T07:32:50.082Z,99.90
2023-05-15T07:35:17.112Z,99.90
2023-05-15T07:37:43.966Z,99.90
2023-05-15T07:40:11.177Z,99.90
2023-05-15T07:42:39.634Z,99.90
2023-05-15T07:45:07.511Z,99.90
2023-05-15T07:47:35.766Z,99.90
2023-05-15T07:50:03.018Z,99.90
2023-05-15T07:52:29.846Z,99.90
2023-05-15T07:54:56.473Z,99.90
2023-05-15T07:57:23.181Z,99.90
2023-05-15T07:59:49.871Z,99.90
2023-05-15T08:02:16.618Z,99.90
2023-05-15T08:04:43.558Z,99.90
2023-05-15T08:07:10.540Z,99.90
2023-05-15T08:09:37.194Z,99.90
2023-05-15T08:12:21.880Z,99.90
2023-05-15T08:14:55.908Z,99.90
2023-05-15T08:17:23.400Z,99.90
2023-05-15T08:19:50.270Z,99.90
2023-05-15T08:22:17.114Z,99.90
2023-05-15T08:24:44.838Z,99.90
2023-05-15T08:27:11.663Z,99.90
2023-05-15T08:29:39.770Z,99.90
2023-05-15T08:32:07.765Z,99.90
2023-05-15T08:34:34.603Z,99.90
2023-05-15T08:37:01.850Z,99.90
2023-05-15T08:39:28.851Z,99.90
2023-05-15T08:42:19.069Z,99.90
2023-05-15T08:44:46.019Z,99.90
2023-05-15T08:47:14.952Z,99.90
2023-05-15T08:50:05.111Z,99.90
2023-05-15T08:52:33.835Z,99.90
2023-05-15T08:55:01.461Z,99.90
2023-05-15T08:57:28.378Z,99.90
2023-05-15T08:59:55.354Z,99.90
2023-05-15T09:02:23.028Z,99.90
2023-05-15T09:04:49.825Z,99.90
2023-05-15T09:07:18.353Z,99.90
2023-05-15T09:09:45.250Z,99.90
2023-05-15T09:12:15.164Z,99.90
2023-05-15T09:14:45.367Z,99.90
2023-05-15T09:17:13.018Z,99.90
2023-05-15T09:19:43.094Z,99.90
2023-05-15T09:22:23.413Z,99.90
2023-05-15T09:24:52.971Z,99.90
2023-05-15T09:27:20.476Z,99.90
2023-05-15T09:29:47.332Z,99.90
2023-05-15T09:32:15.698Z,99.90
2023-05-15T09:34:44.423Z,99.90
2023-05-15T09:37:28.952Z,99.90
2023-05-15T09:39:55.887Z,99.90
2023-05-15T09:42:24.690Z,99.90
2023-05-15T09:44:51.367Z,99.90
2023-05-15T09:47:18.353Z,99.90
2023-05-15T09:49:46.837Z,99.90
2023-05-15T09:52:16.236Z,99.90
2023-05-15T09:54:49.488Z,99.90
2023-05-15T09:57:21.599Z,99.90
2023-05-15T09:59:49.274Z,99.90
2023-05-15T10:02:34.934Z,99.90
2023-05-15T10:05:01.965Z,99.90
2023-05-15T10:07:31.404Z,99.90
2023-05-15T10:09:58.985Z,99.90
2023-05-15T10:12:26.884Z,99.90
2023-05-15T10:14:58.545Z,99.90
2023-05-15T10:17:28.061Z,99.90
2023-05-15T10:19:59.308Z,99.90
2023-05-15T10:22:29.586Z,99.90
2023-05-15T10:25:08.123Z,99.90
2023-05-15T10:27:36.144Z,99.90
2023-05-15T10:30:04.155Z,99.90
2023-05-15T10:32:32.661Z,99.90
2023-05-15T10:34:59.660Z,99.90
2023-05-15T10:37:28.254Z,99.90
2023-05-15T10:39:56.226Z,99.90
2023-05-15T10:42:26.153Z,99.90
2023-05-15T10:44:54.197Z,99.90
2023-05-15T10:47:21.526Z,99.90
2023-05-15T10:49:48.260Z,99.90
2023-05-15T10:52:16.241Z,99.90
2023-05-15T10:54:43.086Z,99.90
2023-05-15T10:57:10.465Z,99.90
2023-05-15T10:59:37.156Z,99.90
2023-05-15T11:02:21.524Z,99.90
2023-05-15T11:04:48.381Z,99.90
2023-05-15T11:07:17.046Z,99.30
2023-05-15T11:09:43.826Z,99.00
2023-05-15T11:12:14.054Z,99.70
2023-05-15T11:14:56.658Z,98.70
2023-05-15T11:17:24.268Z,99.40
2023-05-15T11:19:51.232Z,99.90
2023-05-15T11:22:19.750Z,99.90
2023-05-15T11:24:54.053Z,99.70
2023-05-15T11:27:32.328Z,99.90
2023-05-15T11:30:22.540Z,99.80
2023-05-15T11:32:58.983Z,98.10
2023-05-15T11:35:34.446Z,97.70
2023-05-15T11:38:11.232Z,97.40
2023-05-15T11:41:00.865Z,97.40
2023-05-15T11:43:32.268Z,98.00
2023-05-15T11:46:08.856Z,98.10
2023-05-15T11:48:39.535Z,98.50
2023-05-15T11:51:16.162Z,97.90
2023-05-15T11:53:43.375Z,96.40
2023-05-15T11:56:20.613Z,97.30
2023-05-15T11:58:52.785Z,97.30
2023-05-15T12:01:19.506Z,99.90
2023-05-15T12:03:49.187Z,99.90
2023-05-15T12:06:16.389Z,99.90
2023-05-15T12:08:43.854Z,99.90
2023-05-15T12:11:10.907Z,99.90
2023-05-15T12:13:37.620Z,99.90
2023-05-15T12:16:05.119Z,99.90
2023-05-15T12:18:32.650Z,99.90
2023-05-15T12:20:59.672Z,99.90
2023-05-15T12:23:28.360Z,99.90
2023-05-15T12:26:01.234Z,99.90
2023-05-15T12:28:29.676Z,99.90
2023-05-15T12:30:57.803Z,99.90
2023-05-15T12:33:25.685Z,99.90
2023-05-15T12:35:59.896Z,99.90
2023-05-15T12:38:28.370Z,99.90
2023-05-15T12:40:55.343Z,99.90
2023-05-15T12:43:25.209Z,99.90
2023-05-15T12:45:56.363Z,99.90
2023-05-15T12:48:23.225Z,99.90
2023-05-15T12:50:50.277Z,99.90
2023-05-15T12:53:17.285Z,99.90
2023-05-15T12:55:46.370Z,99.90
2023-05-15T12:58:15.188Z,99.90
2023-05-15T13:00:44.971Z,99.90
2023-05-15T13:03:13.092Z,99.90
2023-05-15T13:05:43.395Z,99.90
2023-05-15T13:08:16.733Z,99.90
2023-05-15T13:10:44.090Z,99.90
2023-05-15T13:13:10.835Z,99.90
2023-05-15T13:15:38.818Z,99.90
2023-05-15T13:18:07.404Z,99.90
2023-05-15T13:20:41.363Z,99.90
2023-05-15T13:23:09.994Z,99.90
2023-05-15T13:25:37.058Z,99.90
2023-05-15T13:28:06.454Z,99.90
2023-05-15T13:30:35.151Z,99.90
2023-05-15T13:33:02.469Z,99.90
2023-05-15T13:35:29.361Z,99.90
2023-05-15T13:37:56.858Z,99.90
2023-05-15T13:40:23.906Z,99.90
2023-05-15T13:42:51.111Z,99.90
2023-05-15T13:45:17.864Z,99.90
2023-05-15T13:47:45.128Z,99.90
2023-05-15T13:50:13.921Z,99.90
2023-05-15T13:52:42.627Z,99.90
2023-05-15T13:55:10.059Z,99.90
2023-05-15T13:57:41.606Z,99.90
2023-05-15T14:00:23.378Z,99.90
2023-05-15T14:02:50.460Z,99.90
2023-05-15T14:05:17.940Z,99.90
2023-05-15T14:07:44.956Z,99.90
2023-05-15T14:10:11.896Z,99.90
2023-05-15T14:12:38.860Z,99.90
2023-05-15T14:15:06.301Z,99.90
2023-05-15T14:17:33.036Z,99.90
2023-05-15T14:19:59.930Z,99.90
2023-05-15T14:22:26.690Z,99.90
2023-05-15T14:24:53.500Z,99.90
2023-05-15T14:27:20.434Z,99.90
2023-05-15T14:29:48.953Z,99.90
2023-05-15T14:32:16.752Z,99.90
2023-05-15T14:34:44.344Z,99.90
2023-05-15T14:37:11.303Z,99.90
2023-05-15T14:39:37.995Z,99.90
2023-05-15T14:42:06.157Z,99.90
2023-05-15T14:44:33.578Z,99.90
2023-05-15T14:47:10.823Z,99.90
2023-05-15T14:49:37.996Z,99.90
2023-05-15T14:52:07.406Z,99.90
2023-05-15T14:54:35.716Z,99.90
2023-05-15T14:57:02.547Z,99.90
2023-05-15T14:59:29.351Z,99.90
2023-05-15T15:01:56.475Z,99.90
2023-05-15T15:04:23.364Z,99.90
2023-05-15T15:06:50.300Z,99.90
2023-05-15T15:09:18.867Z,99.90
2023-05-15T15:11:47.537Z,99.90
2023-05-15T15:14:14.295Z,99.90
2023-05-15T15:16:41.365Z,99.90
2023-05-15T15:19:08.735Z,99.90
2023-05-15T15:21:36.544Z,99.90
2023-05-15T15:24:03.607Z,99.90
2023-05-15T15:26:30.345Z,99.90
2023-05-15T15:29:00.795Z,99.90
2023-05-15T15:31:31.114Z,99.90
2023-05-15T15:33:58.378Z,99.90
2023-05-15T15:36:26.015Z,99.90
2023-05-15T15:38:53.009Z,99.90
2023-05-15T15:41:21.416Z,99.90
2023-05-15T15:43:48.333Z,99.90
2023-05-15T15:46:15.153Z,99.90
2023-05-15T15:48:41.804Z,99.90
2023-05-15T15:51:08.557Z,99.90
2023-05-15T15:53:35.312Z,99.90
2023-05-15T15:56:02.076Z,99.90
2023-05-15T15:58:29.817Z,99.90
2023-05-15T16:00:57.131Z,99.90
2023-05-15T16:03:23.940Z,99.90
2023-05-15T16:05:51.717Z,99.90
2023-05-15T16:08:18.454Z,99.90
2023-05-15T16:10:45.345Z,99.90
2023-05-15T16:13:12.140Z,99.90
2023-05-15T16:15:38.837Z,99.90
2023-05-15T16:18:05.816Z,99.90
2023-05-15T16:20:35.053Z,99.90
2023-05-15T16:23:02.121Z,99.90
2023-05-15T16:25:28.850Z,99.90
2023-05-15T16:27:55.694Z,99.90
2023-05-15T16:30:24.734Z,99.90
2023-05-15T16:32:55.149Z,99.90
2023-05-15T16:35:22.306Z,99.90
2023-05-15T16:37:49.194Z,99.90
2023-05-15T16:40:16.070Z,99.90
2023-05-15T16:42:43.070Z,99.90
2023-05-15T16:45:10.128Z,99.90
2023-05-15T16:47:38.565Z,99.90
2023-05-15T16:50:06.666Z,99.90
2023-05-15T16:52:33.319Z,99.90
2023-05-15T16:55:00.066Z,99.90
2023-05-15T16:57:26.916Z,99.90
2023-05-15T16:59:53.544Z,99.90
2023-05-15T17:02:20.407Z,99.90
2023-05-15T17:04:47.114Z,99.90
2023-05-15T17:07:13.885Z,99.90
2023-05-15T17:09:43.077Z,99.90
2023-05-15T17:12:09.932Z,99.90
2023-05-15T17:14:36.760Z,99.90
2023-05-15T17:17:03.772Z,99.90
2023-05-15T17:19:31.993Z,99.90
2023-05-15T17:21:58.848Z,99.90
2023-05-15T17:24:28.751Z,99.90
2023-05-15T17:26:59.575Z,99.90
2023-05-15T17:29:26.321Z,99.90
2023-05-15T17:31:53.802Z,99.90
2023-05-15T17:34:20.499Z,99.90
2023-05-15T17:36:47.163Z,99.90
2023-05-15T17:39:14.499Z,99.90
2023-05-15T17:41:41.174Z,99.90
2023-05-15T17:44:07.868Z,99.90
2023-05-15T17:46:34.811Z,99.90
2023-05-15T17:49:01.936Z,99.90
2023-05-15T17:51:28.760Z,99.90
2023-05-15T17:53:55.485Z,99.90
2023-05-15T17:56:22.309Z,99.90
2023-05-15T17:58:49.006Z,99.90
2023-05-15T18:01:15.937Z,99.90
2023-05-15T18:03:42.677Z,99.90
2023-05-15T18:06:10.829Z,99.90
2023-05-15T18:08:37.570Z,99.90
2023-05-15T18:11:11.121Z,99.90
2023-05-15T18:13:44.604Z,99.90
2023-05-15T18:16:11.419Z,99.90
2023-05-15T18:18:38.124Z,99.90
2023-05-15T18:21:05.517Z,99.90
2023-05-15T18:23:32.292Z,99.90
2023-05-15T18:25:59.126Z,99.90
2023-05-15T18:28:25.869Z,99.90
2023-05-15T18:30:52.659Z,99.90
2023-05-15T18:33:19.362Z,99.90
2023-05-15T18:35:46.046Z,99.90
2023-05-15T18:38:12.675Z,99.90
2023-05-15T18:40:39.397Z,99.90
2023-05-15T18:43:06.348Z,99.90
2023-05-15T18:45:33.106Z,99.90
2023-05-15T18:47:59.876Z,99.90
2023-05-15T18:50:26.997Z,99.90
2023-05-15T18:52:53.794Z,99.90
2023-05-15T18:55:21.680Z,99.90
2023-05-15T18:57:48.472Z,99.90
2023-05-15T19:00:23.735Z,99.90
2023-05-15T19:03:00.699Z,99.90
2023-05-15T19:05:27.728Z,99.90
2023-05-15T19:07:54.717Z,99.90
2023-05-15T19:10:21.505Z,99.90
2023-05-15T19:12:48.496Z,99.90
2023-05-15T19:15:16.942Z,99.90
2023-05-15T19:17:43.727Z,99.90
2023-05-15T19:20:11.394Z,99.90
2023-05-15T19:22:38.095Z,99.90
2023-05-15T19:25:06.069Z,99.90
2023-05-15T19:27:34.616Z,99.90
2023-05-15T19:30:02.090Z,99.90
2023-05-15T19:32:31.892Z,99.90
2023-05-15T19:34:59.023Z,99.90
2023-05-15T19:37:25.722Z,99.90
2023-05-15T19:39:52.488Z,99.90
2023-05-15T19:42:19.373Z,99.90
2023-05-15T19:44:46.117Z,99.90
2023-05-15T19:47:12.850Z,99.90
2023-05-15T19:49:39.559Z,99.90
2023-05-15T19:52:06.476Z,99.90
2023-05-15T19:54:33.328Z,99.90
2023-05-15T19:57:02.904Z,99.90
2023-05-15T19:59:29.993Z,99.90
2023-05-15T20:01:56.930Z,99.90
2023-05-15T20:04:23.853Z,99.90
2023-05-15T20:06:50.848Z,99.90
2023-05-15T20:09:17.555Z,99.90
2023-05-15T20:11:45.094Z,99.90
2023-05-15T20:14:11.811Z,99.90
2023-05-15T20:16:38.756Z,99.90
2023-05-15T20:19:06.117Z,99.90
2023-05-15T20:21:33.046Z,99.90
2023-05-15T20:24:00.034Z,99.90
2023-05-15T20:26:27.074Z,99.90
2023-05-15T20:28:53.882Z,99.90
2023-05-15T20:31:21.004Z,99.90
2023-05-15T20:33:47.678Z,99.90
2023-05-15T20:36:16.540Z,99.90
2023-05-15T20:38:44.912Z,99.90
2023-05-15T20:41:11.914Z,99.90
2023-05-15T20:43:39.078Z,99.90
2023-05-15T20:46:08.889Z,99.90
2023-05-15T20:48:36.405Z,99.90
2023-05-15T20:51:03.291Z,99.90
2023-05-15T20:53:30.042Z,99.90
2023-05-15T20:55:56.762Z,99.90
2023-05-15T20:58:23.576Z,99.90
2023-05-15T21:00:53.127Z,99.90
2023-05-15T21:03:20.103Z,99.90
2023-05-15T21:05:48.042Z,99.90
2023-05-15T21:08:14.872Z,99.90
2023-05-15T21:10:41.617Z,99.90
2023-05-15T21:13:11.979Z,99.90
2023-05-15T21:15:38.736Z,99.90
2023-05-15T21:18:05.592Z,99.90
2023-05-15T21:20:34.930Z,99.90
2023-05-15T21:23:01.987Z,99.90
2023-05-15T21:25:28.713Z,99.90
2023-05-15T21:27:56.592Z,99.90
2023-05-15T21:30:23.245Z,99.90
2023-05-15T21:32:50.081Z,99.90
2023-05-15T21:35:16.969Z,99.90
2023-05-15T21:37:44.249Z,99.90
2023-05-15T21:40:11.558Z,99.90
2023-05-15T21:42:38.199Z,99.90
2023-05-15T21:45:08.120Z,99.90
2023-05-15T21:47:34.869Z,99.90
2023-05-15T21:50:01.862Z,99.90
2023-05-15T21:52:28.604Z,99.90
2023-05-15T21:54:55.355Z,99.90
2023-05-15T21:57:22.063Z,99.90
2023-05-15T21:59:48.710Z,99.90
2023-05-15T22:02:15.582Z,99.90
2023-05-15T22:04:42.325Z,99.90
2023-05-15T22:07:08.953Z,99.90
2023-05-15T22:09:35.729Z,99.90
2023-05-15T22:12:02.392Z,99.90
2023-05-15T22:14:32.154Z,99.90
2023-05-15T22:16:59.352Z,99.90
2023-05-15T22:19:33.143Z,99.90
2023-05-15T22:22:01.842Z,99.90
2023-05-15T22:24:28.624Z,99.90
2023-05-15T22:26:55.327Z,99.90
2023-05-15T22:29:21.968Z,99.90
2023-05-15T22:31:48.691Z,99.90
2023-05-15T22:34:15.668Z,99.90
2023-05-15T22:36:42.382Z,99.90
2023-05-15T22:39:09.361Z,99.90
2023-05-15T22:41:36.009Z,99.90
2023-05-15T22:44:02.895Z,99.90
2023-05-15T22:46:29.674Z,99.90
2023-05-15T22:48:59.025Z,99.90
2023-05-15T22:51:26.366Z,99.90
2023-05-15T22:53:53.112Z,99.90
2023-05-15T22:56:20.010Z,99.90
2023-05-15T22:58:47.826Z,99.90
2023-05-15T23:01:14.672Z,99.90
2023-05-15T23:03:41.511Z,99.90
2023-05-15T23:06:08.253Z,99.90
2023-05-15T23:08:34.978Z,99.90
2023-05-15T23:11:01.826Z,99.90
2023-05-15T23:13:28.570Z,99.90
2023-05-15T23:15:55.379Z,99.90
2023-05-15T23:18:22.212Z,99.90
2023-05-15T23:20:48.958Z,99.90
2023-05-15T23:23:15.949Z,99.90
2023-05-15T23:25:42.638Z,99.90
2023-05-15T23:28:09.308Z,99.90
2023-05-15T23:30:36.045Z,99.90
2023-05-15T23:33:02.837Z,99.90
2023-05-15T23:35:29.599Z,99.90
2023-05-15T23:37:56.270Z,99.90
2023-05-15T23:40:22.904Z,99.90
2023-05-15T23:42:49.554Z,99.90
2023-05-15T23:45:16.307Z,99.90
2023-05-15T23:47:43.081Z,99.90
2023-05-15T23:50:10.033Z,99.90
2023-05-15T23:52:36.797Z,99.90
2023-05-15T23:55:03.802Z,99.90
2023-05-15T23:57:30.727Z,99.90
2023-05-15T23:59:57.509Z,99.90
